Time;durP1;ratioP1;P1;durP2;ratioP2;P2;SDS_P1;SDS_P2;PMS_P1;PMS_P2;Temp;Humidity;BMP_temperature;BMP_pressure;BME280_temperature;BME280_humidity;BME280_pressure;Samples;Min_cycle;Max_cycle;Signal;HPM_P1;HPM_P2
2023/01/22 00:02:24;;;;;;;3.87;2.40;;;;;;;17.82;51.19;101224.63;5038860;28;20235;-60
2023/01/22 00:04:50;;;;;;;3.63;2.17;;;;;;;17.79;50.95;101222.47;5042984;28;20603;-60
2023/01/22 00:07:15;;;;;;;4.50;2.30;;;;;;;17.80;51.45;101221.28;5036886;28;20184;-60
2023/01/22 00:09:41;;;;;;;3.30;2.20;;;;;;;17.79;51.34;101225.34;5029625;28;20844;-60
2023/01/22 00:12:07;;;;;;;3.80;2.20;;;;;;;17.82;51.34;101218.09;5031224;28;20187;-60
2023/01/22 00:14:32;;;;;;;4.30;2.60;;;;;;;17.78;51.10;101226.53;5031040;28;20182;-60
2023/01/22 00:16:58;;;;;;;3.43;1.90;;;;;;;17.80;51.35;101214.75;5033642;28;20199;-60
2023/01/22 00:19:23;;;;;;;5.50;3.13;;;;;;;17.76;51.04;101219.50;5039875;28;20160;-60
2023/01/22 00:21:49;;;;;;;3.37;2.10;;;;;;;17.82;51.63;101210.34;5048250;28;20331;-60
2023/01/22 00:24:14;;;;;;;3.07;2.00;;;;;;;17.82;51.07;101213.22;5034991;28;20227;-60
2023/01/22 00:26:39;;;;;;;2.97;2.20;;;;;;;17.85;50.90;101214.53;5034958;28;20180;-60
2023/01/22 00:29:05;;;;;;;2.90;2.03;;;;;;;17.82;51.28;101210.34;5039201;28;20245;-60
2023/01/22 00:31:30;;;;;;;3.57;2.03;;;;;;;17.80;51.23;101206.19;5034925;28;20180;-60
2023/01/22 00:33:56;;;;;;;3.30;2.10;;;;;;;17.76;51.52;101206.03;5035191;28;20172;-60
2023/01/22 00:36:21;;;;;;;3.30;2.30;;;;;;;17.79;51.05;101211.06;5035728;28;20624;-60
2023/01/22 00:38:48;;;;;;;3.10;1.87;;;;;;;17.76;51.66;101206.03;5033651;28;20168;-60
2023/01/22 00:41:14;;;;;;;3.10;2.10;;;;;;;17.79;51.13;101207.34;5036682;28;20211;-61
2023/01/22 00:43:39;;;;;;;3.43;2.07;;;;;;;17.82;51.25;101210.34;5034973;28;20400;-60
2023/01/22 00:46:06;;;;;;;2.90;1.80;;;;;;;17.81;51.31;101207.84;5049708;28;20252;-60
2023/01/22 00:48:31;;;;;;;3.70;2.43;;;;;;;17.83;51.43;101202.59;5053474;28;20609;-60
2023/01/22 00:50:57;;;;;;;3.30;2.10;;;;;;;17.78;51.20;101197.97;5050148;28;20438;-60
2023/01/22 00:53:22;;;;;;;3.13;2.10;;;;;;;17.75;50.99;101198.66;5052587;28;20168;-60
2023/01/22 00:55:58;;;;;;;5.37;2.00;;;;;;;17.79;51.04;101199.63;5050102;28;20191;-60
2023/01/22 00:58:23;;;;;;;3.57;2.00;;;;;;;17.77;51.28;101198.31;5034429;28;20175;-60
2023/01/22 01:00:49;;;;;;;3.00;2.20;;;;;;;17.74;50.98;101196.16;5039815;28;20902;-60
2023/01/22 01:03:26;;;;;;;3.57;2.10;;;;;;;17.76;51.30;101188.91;5049336;28;20233;-60
2023/01/22 01:05:58;;;;;;;4.87;2.33;;;;;;;17.73;51.61;101194.50;5074408;28;20187;-60
2023/01/22 01:08:24;;;;;;;3.50;2.40;;;;;;;17.78;51.05;101197.97;5069557;28;20813;-60
2023/01/22 01:10:59;;;;;;;3.70;2.33;;;;;;;17.72;51.46;101190.81;5034786;28;20522;-60
2023/01/22 01:13:25;;;;;;;3.20;2.20;;;;;;;17.75;51.50;101192.94;5034890;28;20235;-60
2023/01/22 01:16:00;;;;;;;2.60;1.90;;;;;;;17.70;51.45;101190.31;5034607;28;20514;-60
2023/01/22 01:18:26;;;;;;;4.60;2.07;;;;;;;17.71;51.33;101186.28;5035013;28;20192;-61
2023/01/22 01:20:55;;;;;;;2.90;1.77;;;;;;;17.73;51.50;101178.22;5037557;28;20509;-60
2023/01/22 01:23:21;;;;;;;4.47;2.30;;;;;;;17.69;51.09;101188.66;5036244;28;20184;-60
2023/01/22 01:25:46;;;;;;;2.87;1.93;;;;;;;17.68;51.14;101192.72;5037376;28;20434;-60
2023/01/22 01:28:12;;;;;;;3.40;1.90;;;;;;;17.72;51.55;101184.25;5035063;28;20408;-61
2023/01/22 01:30:37;;;;;;;2.80;1.73;;;;;;;17.79;51.30;101184.50;5037627;28;20187;-60
2023/01/22 01:33:03;;;;;;;3.40;1.80;;;;;;;17.79;51.50;101195.94;5034287;28;20157;-61
2023/01/22 01:35:28;;;;;;;3.30;1.67;;;;;;;17.77;51.34;101187.75;5035034;28;20543;-61
2023/01/22 01:37:53;;;;;;;2.33;1.67;;;;;;;17.78;51.23;101179.97;5037692;28;20184;-60
2023/01/22 01:40:19;;;;;;;3.60;2.10;;;;;;;17.73;51.17;101183.91;5034088;28;20212;-61
2023/01/22 01:42:44;;;;;;;3.00;2.00;;;;;;;17.76;51.32;101188.09;5035811;28;20195;-60
2023/01/22 01:45:25;;;;;;;4.40;2.50;;;;;;;17.78;51.01;101186.53;5033927;28;20176;-60
2023/01/22 01:48:21;;;;;;;2.83;1.73;;;;;;;17.74;51.39;101179.88;5034312;28;20259;-61
2023/01/22 01:50:49;;;;;;;2.93;1.87;;;;;;;17.70;51.49;101173.19;5052213;28;20418;-63
2023/01/22 01:53:14;;;;;;;3.43;2.10;;;;;;;17.74;51.39;101176.16;5052269;28;20770;-61
2023/01/22 01:55:40;;;;;;;3.80;1.70;;;;;;;17.69;51.44;101177.25;5041730;28;20443;-60
2023/01/22 01:58:13;;;;;;;3.30;1.97;;;;;;;17.68;51.13;101174.72;5036944;28;20189;-61
2023/01/22 02:00:38;;;;;;;4.90;1.33;;;;;;;17.70;51.32;101175.22;5048452;28;20710;-61
2023/01/22 02:03:04;;;;;;;2.53;1.67;;;;;;;17.69;51.37;101177.25;5046337;28;20439;-61
2023/01/22 02:05:31;;;;;;;3.30;1.80;;;;;;;17.68;51.36;101181.28;5064488;28;20206;-61
2023/01/22 02:07:57;;;;;;;4.53;2.50;;;;;;;17.66;51.69;101172.22;5033735;28;20667;-61
2023/01/22 02:10:22;;;;;;;3.87;2.00;;;;;;;17.69;51.35;101171.53;5035543;28;20434;-61
2023/01/22 02:12:47;;;;;;;2.73;1.80;;;;;;;17.69;51.33;101171.53;5047899;28;20190;-61
2023/01/22 02:15:13;;;;;;;2.40;1.70;;;;;;;17.67;51.25;101176.78;5051080;28;20176;-61
2023/01/22 02:17:38;;;;;;;3.13;2.10;;;;;;;17.69;51.45;101177.25;5052757;28;20160;-61
2023/01/22 02:20:04;;;;;;;2.53;1.60;;;;;;;17.75;51.61;101172.97;5051638;28;20182;-61
2023/01/22 02:22:30;;;;;;;2.50;1.60;;;;;;;17.74;51.35;101167.59;5050094;28;20206;-61
2023/01/22 02:24:56;;;;;;;3.03;1.90;;;;;;;17.71;51.51;101168.31;5052530;28;20250;-61
2023/01/22 02:27:21;;;;;;;4.80;2.50;;;;;;;17.66;51.48;101172.22;5048447;28;21063;-61
2023/01/22 02:29:47;;;;;;;3.07;1.93;;;;;;;17.67;51.37;101173.06;5044798;28;20184;-61
2023/01/22 02:32:13;;;;;;;3.33;2.13;;;;;;;17.62;51.87;101177.00;5032494;28;20259;-61
2023/01/22 02:34:38;;;;;;;2.93;1.93;;;;;;;17.66;51.25;101168.56;5032958;28;20167;-61
2023/01/22 02:37:04;;;;;;;3.33;2.00;;;;;;;17.67;51.26;101165.34;5032517;28;20271;-61
2023/01/22 02:39:29;;;;;;;3.20;1.90;;;;;;;17.69;51.64;101174.38;5033537;28;20193;-61
2023/01/22 02:41:55;;;;;;;2.97;1.80;;;;;;;17.68;51.46;101164.16;5032231;28;20208;-61
2023/01/22 02:44:20;;;;;;;3.37;2.00;;;;;;;17.68;51.36;101172.72;5034673;28;20165;-61
2023/01/22 02:46:46;;;;;;;3.80;2.10;;;;;;;17.65;51.40;101167.72;5046909;28;20225;-61
2023/01/22 02:49:11;;;;;;;3.27;1.90;;;;;;;17.71;51.74;101174.84;5052071;28;20187;-61
2023/01/22 02:51:36;;;;;;;2.90;1.93;;;;;;;17.66;51.50;101177.13;5050169;28;20186;-61
2023/01/22 02:54:02;;;;;;;2.70;1.40;;;;;;;17.66;51.19;101172.22;5032270;28;20181;-61
2023/01/22 02:56:27;;;;;;;3.17;1.93;;;;;;;17.65;51.43;101173.41;5032480;28;20195;-61
2023/01/22 02:58:53;;;;;;;3.50;2.27;;;;;;;17.58;51.41;101158.91;5039679;28;20182;-61
2023/01/22 03:01:20;;;;;;;4.17;2.17;;;;;;;17.61;51.56;101149.59;5051623;28;20234;-61
2023/01/22 03:03:46;;;;;;;2.50;1.60;;;;;;;17.60;51.30;101153.66;5048585;28;20192;-61
2023/01/22 03:06:14;;;;;;;2.63;1.80;;;;;;;17.62;51.79;101153.31;5030707;28;20520;-61
2023/01/22 03:08:40;;;;;;;2.47;1.40;;;;;;;17.64;51.55;101160.34;5034299;28;20921;-61
2023/01/22 03:11:05;;;;;;;2.40;1.70;;;;;;;17.59;51.48;101154.84;5031976;28;20427;-61
2023/01/22 03:21:45;;;;;;;2.80;1.93;;;;;;;17.60;51.51;101147.94;5050372;28;20457;-61
2023/01/22 03:24:10;;;;;;;3.00;1.87;;;;;;;17.54;51.80;101148.53;5051084;28;20407;-61
2023/01/22 03:26:35;;;;;;;2.60;1.70;;;;;;;17.58;51.80;101153.19;5034003;28;20188;-61
2023/01/22 03:29:01;;;;;;;2.43;1.57;;;;;;;17.60;51.53;101147.94;5031743;28;20183;-61
2023/01/22 03:31:26;;;;;;;3.00;1.70;;;;;;;17.59;51.54;101143.44;5038663;28;20187;-61
2023/01/22 03:33:52;;;;;;;2.90;1.70;;;;;;;17.60;51.58;101138.56;5051301;28;20162;-61
2023/01/22 03:36:17;;;;;;;2.17;1.43;;;;;;;17.59;51.86;101134.03;5051354;28;20213;-61
2023/01/22 03:38:44;;;;;;;2.80;1.63;;;;;;;17.59;51.37;101137.72;5051476;28;20164;-61
2023/01/22 03:41:12;;;;;;;2.80;1.80;;;;;;;17.60;51.49;101127.97;5047018;28;20211;-61
2023/01/22 03:43:37;;;;;;;2.57;1.40;;;;;;;17.58;51.98;101127.50;5051262;28;20402;-62
2023/01/22 03:46:03;;;;;;;2.97;1.80;;;;;;;17.58;51.64;101138.91;5045832;28;20443;-61
2023/01/22 03:48:29;;;;;;;3.10;2.00;;;;;;;17.57;51.42;101134.41;5031316;28;20188;-61
2023/01/22 03:50:54;;;;;;;3.20;1.90;;;;;;;17.53;51.74;101136.28;5031252;28;20391;-61
2023/01/22 03:53:20;;;;;;;2.80;1.90;;;;;;;17.55;51.80;101142.47;5044957;28;20240;-61
2023/01/22 03:55:45;;;;;;;4.17;1.73;;;;;;;17.56;51.56;101137.59;5046311;28;20176;-61
2023/01/22 03:58:10;;;;;;;3.40;1.77;;;;;;;17.55;51.42;101142.47;5044703;28;20191;-61
2023/01/22 04:00:36;;;;;;;2.63;1.50;;;;;;;17.58;51.51;101138.06;5030935;28;20693;-61
2023/01/22 04:03:01;;;;;;;2.70;1.50;;;;;;;17.51;51.52;101144.34;5046083;28;20738;-61
2023/01/22 04:05:27;;;;;;;3.20;1.70;;;;;;;17.60;51.52;101144.28;5034369;28;20211;-61
2023/01/22 04:07:52;;;;;;;3.23;1.70;;;;;;;17.58;51.42;101138.06;5033545;28;20172;-61
2023/01/22 04:10:18;;;;;;;2.50;1.60;;;;;;;17.57;51.43;101145.81;5033416;28;20180;-61
2023/01/22 04:12:43;;;;;;;2.63;1.93;;;;;;;17.60;51.42;101155.69;5033382;28;20188;-61
2023/01/22 04:15:09;;;;;;;2.77;1.73;;;;;;;17.56;51.26;101149.84;5034630;28;20174;-61
2023/01/22 04:17:35;;;;;;;2.43;1.60;;;;;;;17.54;51.62;101143.66;5048978;28;20255;-61
2023/01/22 04:20:00;;;;;;;2.37;1.50;;;;;;;17.59;51.37;101148.28;5031041;28;20422;-61
2023/01/22 04:22:25;;;;;;;3.23;1.90;;;;;;;17.55;51.24;101151.03;5050301;28;20163;-61
2023/01/22 04:24:51;;;;;;;2.73;2.00;;;;;;;17.51;51.59;101150.06;5038576;28;20192;-61
2023/01/22 04:27:16;;;;;;;2.70;1.60;;;;;;;17.50;51.57;101144.72;5030883;28;20168;-61
2023/01/22 04:29:42;;;;;;;2.30;1.50;;;;;;;17.54;51.52;101157.94;5033253;28;20650;-61
2023/01/22 04:32:07;;;;;;;4.37;1.73;;;;;;;17.56;51.39;101146.16;5030917;28;20180;-61
2023/01/22 04:34:33;;;;;;;2.80;1.60;;;;;;;17.57;51.24;101145.81;5030956;28;20165;-61
2023/01/22 04:36:58;;;;;;;3.60;1.83;;;;;;;17.57;51.43;101154.38;5030870;28;20537;-61
2023/01/22 04:39:23;;;;;;;2.50;1.53;;;;;;;17.58;51.39;101153.19;5035160;28;20180;-61
2023/01/22 04:41:49;;;;;;;2.47;1.60;;;;;;;17.55;51.72;101155.94;5032600;28;20224;-61
2023/01/22 04:44:14;;;;;;;2.20;1.40;;;;;;;17.56;51.53;101155.53;5030775;28;20561;-61
2023/01/22 04:46:40;;;;;;;3.07;1.93;;;;;;;17.56;51.21;101161.25;5033092;28;20188;-61
2023/01/22 04:49:05;;;;;;;2.90;1.70;;;;;;;17.55;51.26;101162.44;5033129;28;20168;-61
2023/01/22 04:51:30;;;;;;;2.90;1.70;;;;;;;17.62;51.30;101147.59;5033204;28;20187;-61
2023/01/22 04:53:56;;;;;;;2.90;1.93;;;;;;;17.62;51.41;101154.16;5030585;28;20631;-61
2023/01/22 04:56:21;;;;;;;2.70;1.93;;;;;;;17.57;51.26;101153.53;5029113;28;20187;-61
2023/01/22 04:58:48;;;;;;;3.00;1.80;;;;;;;17.55;51.47;101151.03;5050154;28;20187;-61
2023/01/22 05:01:13;;;;;;;2.47;1.70;;;;;;;17.56;51.28;101149.84;5046282;28;20223;-61
2023/01/22 05:03:39;;;;;;;2.90;1.80;;;;;;;17.55;51.26;101153.06;5057642;28;20444;-61
2023/01/22 05:06:04;;;;;;;3.10;1.70;;;;;;;17.56;51.21;101140.47;5070505;28;20191;-61
2023/01/22 05:08:30;;;;;;;3.20;2.10;;;;;;;17.50;51.29;101153.28;5072207;28;20261;-61
2023/01/22 05:10:59;;;;;;;3.60;1.90;;;;;;;17.57;51.36;101145.81;5046057;28;20183;-61
2023/01/22 05:13:25;;;;;;;2.70;1.60;;;;;;;17.55;51.54;101153.88;5053826;28;20175;-61
2023/01/22 05:15:50;;;;;;;2.30;1.60;;;;;;;17.49;51.81;101161.00;5054270;28;20468;-61
2023/01/22 05:18:15;;;;;;;2.23;1.50;;;;;;;17.54;51.58;101159.94;5050555;28;20253;-61
2023/01/22 05:20:41;;;;;;;2.60;1.77;;;;;;;17.56;51.60;101155.53;5034792;28;20717;-61
2023/01/22 05:23:06;;;;;;;2.63;1.60;;;;;;;17.55;51.34;101162.44;5033793;28;20203;-61
2023/01/22 05:25:32;;;;;;;2.77;1.50;;;;;;;17.55;51.66;101165.31;5032400;28;20173;-61
2023/01/22 05:27:57;;;;;;;3.23;1.70;;;;;;;17.55;51.37;101162.44;5036509;28;20180;-61
2023/01/22 05:30:22;;;;;;;2.20;1.70;;;;;;;17.53;51.33;101167.69;5053819;28;20218;-61
2023/01/22 05:32:48;;;;;;;2.57;1.90;;;;;;;17.56;51.49;101160.44;5053813;28;20167;-61
2023/01/22 05:35:14;;;;;;;2.33;1.60;;;;;;;17.53;51.39;101164.00;5038457;28;20192;-61
2023/01/22 05:37:39;;;;;;;2.67;1.70;;;;;;;17.54;51.09;101169.34;5033678;28;20886;-61
2023/01/22 05:40:05;;;;;;;2.43;1.70;;;;;;;17.55;51.27;101168.16;5033281;28;20189;-61
2023/01/22 05:42:31;;;;;;;3.03;1.90;;;;;;;17.59;51.26;101163.41;5032643;28;20186;-61
2023/01/22 05:44:56;;;;;;;2.87;1.80;;;;;;;17.57;51.59;101168.66;5035659;28;20534;-61
2023/01/22 05:47:22;;;;;;;3.40;1.80;;;;;;;17.53;51.13;101172.56;5033620;28;20175;-62
2023/01/22 05:49:47;;;;;;;3.13;1.73;;;;;;;17.51;51.39;101175.75;5033414;28;20164;-61
2023/01/22 05:52:12;;;;;;;2.70;1.70;;;;;;;17.55;51.40;101182.44;5035470;28;20188;-61
2023/01/22 05:54:38;;;;;;;2.23;1.43;;;;;;;17.55;51.75;101175.91;5035702;28;20179;-61
2023/01/22 05:57:04;;;;;;;3.40;1.90;;;;;;;17.55;51.35;101176.72;5037772;28;20198;-61
2023/01/22 05:59:29;;;;;;;2.80;1.77;;;;;;;17.54;51.16;101174.22;5051839;28;20160;-61
2023/01/22 06:01:54;;;;;;;2.53;1.50;;;;;;;17.61;51.18;101181.00;5037314;28;20208;-61
2023/01/22 06:04:20;;;;;;;2.27;1.50;;;;;;;17.59;51.04;101179.69;5056989;28;20171;-61
2023/01/22 06:06:45;;;;;;;2.27;1.37;;;;;;;17.57;51.51;101182.09;5051156;28;20612;-61
2023/01/22 06:09:12;;;;;;;2.20;1.40;;;;;;;17.57;51.08;101185.78;5038802;28;20172;-61
2023/01/22 06:11:38;;;;;;;2.37;1.47;;;;;;;17.58;51.34;101183.75;5035609;28;20190;-61
2023/01/22 06:14:03;;;;;;;2.60;1.70;;;;;;;17.54;51.20;101183.63;5051814;28;20406;-61
2023/01/22 06:16:29;;;;;;;2.40;1.40;;;;;;;17.54;51.55;101186.47;5051104;28;20180;-61
2023/01/22 06:18:54;;;;;;;2.20;1.60;;;;;;;17.53;51.69;101192.53;5048224;28;20564;-61
2023/01/22 06:21:20;;;;;;;2.83;1.57;;;;;;;17.55;51.55;101190.19;5052822;28;20199;-61
2023/01/22 06:23:45;;;;;;;2.20;1.57;;;;;;;17.56;51.16;101189.00;5052516;28;20643;-61
2023/01/22 06:26:11;;;;;;;2.60;1.93;;;;;;;17.49;51.26;101191.56;5049085;28;20173;-61
2023/01/22 06:28:36;;;;;;;2.67;1.73;;;;;;;17.49;51.76;101191.56;5052596;28;20160;-61
2023/01/22 06:31:04;;;;;;;2.13;1.50;;;;;;;17.50;51.41;101196.94;5052716;28;20167;-61
2023/01/22 06:33:33;;;;;;;2.67;1.60;;;;;;;17.48;51.21;101196.47;5035146;28;20185;-61
2023/01/22 06:35:59;;;;;;;2.60;1.63;;;;;;;17.50;51.88;101191.22;5032392;28;20411;-61
2023/01/22 06:38:24;;;;;;;2.50;1.50;;;;;;;17.45;51.61;101200.00;5034751;28;20445;-61
2023/01/22 06:40:53;;;;;;;2.30;1.27;;;;;;;17.47;51.63;101189.09;5031759;28;20227;-61
2023/01/22 06:43:19;;;;;;;2.80;1.73;;;;;;;17.49;51.34;101195.28;5029694;28;20283;-61
2023/01/22 06:45:44;;;;;;;1.97;1.20;;;;;;;17.43;51.80;101195.84;5033002;28;20902;-61
2023/01/22 06:48:10;;;;;;;2.47;1.37;;;;;;;17.39;51.56;101201.44;5030678;28;20176;-61
2023/01/22 06:50:35;;;;;;;2.53;1.47;;;;;;;17.46;51.37;101201.69;5042070;28;20176;-61
2023/01/22 06:53:01;;;;;;;2.40;1.70;;;;;;;17.43;51.72;101204.41;5051108;28;20607;-61
2023/01/22 06:55:26;;;;;;;2.23;1.33;;;;;;;17.45;51.55;101202.88;5045247;28;20179;-61
2023/01/22 06:57:55;;;;;;;2.20;1.70;;;;;;;17.42;51.40;101206.44;5033610;28;20195;-61
2023/01/22 07:00:20;;;;;;;2.13;1.40;;;;;;;17.47;51.47;101209.06;5031171;28;20228;-61
2023/01/22 07:02:46;;;;;;;2.10;1.47;;;;;;;17.43;51.98;101216.66;5031061;28;20445;-61
2023/01/22 07:05:14;;;;;;;2.63;1.67;;;;;;;17.41;51.77;101209.66;5032985;28;20624;-61
2023/01/22 07:07:40;;;;;;;2.47;1.53;;;;;;;17.39;51.77;101218.56;5032119;28;20168;-61
2023/01/22 07:10:05;;;;;;;2.50;1.70;;;;;;;17.43;51.74;101219.53;5029928;28;20429;-61
2023/01/22 07:12:31;;;;;;;1.97;1.33;;;;;;;17.41;51.36;101233.28;5030229;28;20216;-61
2023/01/22 07:14:56;;;;;;;2.03;1.43;;;;;;;17.37;51.37;101232.31;5032484;28;20203;-61
2023/01/22 07:17:21;;;;;;;2.80;1.70;;;;;;;17.41;51.70;101223.91;5031119;28;20234;-61
2023/01/22 07:19:47;;;;;;;2.57;1.23;;;;;;;17.41;51.66;101230.44;5033266;28;20669;-61
2023/01/22 07:22:12;;;;;;;2.93;1.40;;;;;;;17.37;51.74;101235.16;5031577;28;20192;-61
2023/01/22 07:24:38;;;;;;;2.90;1.80;;;;;;;17.38;51.92;101233.97;5031485;28;20176;-61
2023/01/22 07:27:03;;;;;;;2.60;1.70;;;;;;;17.41;51.67;101224.72;5033307;28;20184;-61
2023/01/22 07:29:28;;;;;;;2.80;1.70;;;;;;;17.37;51.75;101238.03;5031105;28;20175;-61
2023/01/22 07:31:54;;;;;;;2.30;1.50;;;;;;;17.36;51.82;101235.53;5032827;28;20530;-61
2023/01/22 07:34:19;;;;;;;2.10;1.37;;;;;;;17.37;51.86;101238.03;5030803;28;20177;-61
2023/01/22 07:36:45;;;;;;;2.00;1.33;;;;;;;17.39;51.92;101243.41;5030624;28;20259;-61
2023/01/22 07:39:10;;;;;;;2.97;1.73;;;;;;;17.38;51.86;101239.69;5032562;28;20200;-61
2023/01/22 07:41:36;;;;;;;2.50;1.50;;;;;;;17.39;51.50;101246.25;5048101;28;20269;-61
2023/01/22 07:44:02;;;;;;;3.30;2.07;;;;;;;17.37;51.38;101254.31;5051378;28;20214;-61
2023/01/22 07:46:28;;;;;;;2.00;1.40;;;;;;;17.42;51.70;101248.41;5047982;28;20180;-61
2023/01/22 07:48:53;;;;;;;3.07;1.73;;;;;;;17.38;51.32;101239.69;5049317;28;20842;-61
2023/01/22 07:51:19;;;;;;;3.20;1.60;;;;;;;17.39;51.71;101246.25;5031433;28;20173;-60
2023/01/22 07:53:44;;;;;;;2.23;1.47;;;;;;;17.38;51.39;101255.97;5031212;28;20578;-61
2023/01/22 07:56:09;;;;;;;2.40;1.57;;;;;;;17.37;51.61;101252.28;5013295;28;21170;-60
2023/01/22 07:58:35;;;;;;;3.47;1.87;;;;;;;17.36;51.50;101259.16;5033431;28;20187;-60
2023/01/22 08:01:04;;;;;;;2.57;1.60;;;;;;;17.31;51.77;101259.38;5033078;28;20330;-61
2023/01/22 08:03:32;;;;;;;2.63;1.60;;;;;;;17.31;51.70;101265.09;5043510;28;20168;-60
2023/01/22 08:05:58;;;;;;;3.13;2.03;;;;;;;17.37;51.78;101265.72;5070768;28;20437;-60
2023/01/22 08:08:23;;;;;;;2.80;1.60;;;;;;;17.37;51.59;101260.88;5034186;28;20462;-60
2023/01/22 08:10:49;;;;;;;3.93;1.80;;;;;;;17.36;51.53;101256.31;5030996;28;20187;-60
2023/01/22 08:13:14;;;;;;;2.10;1.30;;;;;;;17.31;51.97;101261.41;5031731;28;20184;-60
2023/01/22 08:15:43;;;;;;;2.33;1.50;;;;;;;17.32;51.84;101269.63;5032675;28;20192;-61
2023/01/22 08:18:09;;;;;;;2.50;1.60;;;;;;;17.29;51.94;101275.19;5048340;28;20258;-60
2023/01/22 08:20:34;;;;;;;2.20;1.30;;;;;;;17.32;51.74;101269.63;5016368;28;20446;-61
2023/01/22 08:23:00;;;;;;;2.23;1.47;;;;;;;17.31;51.75;101273.66;5034161;28;20945;-60
2023/01/22 08:25:26;;;;;;;3.23;1.60;;;;;;;17.29;51.89;101275.19;5045256;28;20190;-61
2023/01/22 08:27:51;;;;;;;2.37;1.60;;;;;;;17.31;51.68;101273.66;5050824;28;20172;-60
2023/01/22 08:30:17;;;;;;;2.07;1.40;;;;;;;17.31;51.65;101276.50;5049285;28;20720;-61
2023/01/22 08:32:44;;;;;;;2.50;1.53;;;;;;;17.31;51.66;101287.09;5032318;28;20215;-60
2023/01/22 08:35:10;;;;;;;2.10;1.43;;;;;;;17.28;51.60;101291.50;5030140;28;20178;-60
2023/01/22 08:37:35;;;;;;;3.00;1.40;;;;;;;17.27;51.46;101289.81;5031476;28;21012;-61
2023/01/22 08:40:00;;;;;;;2.40;1.60;;;;;;;17.25;51.79;101289.31;5030948;28;21019;-60
2023/01/22 08:42:26;;;;;;;2.10;1.40;;;;;;;17.25;51.98;101289.31;5038149;28;20600;-60
2023/01/22 08:44:51;;;;;;;2.87;1.80;;;;;;;17.24;51.60;101290.50;5041641;28;20545;-61
2023/01/22 08:47:17;;;;;;;2.43;1.60;;;;;;;17.26;51.76;101290.16;5034409;28;20176;-60
2023/01/22 08:49:42;;;;;;;2.53;1.40;;;;;;;17.31;51.73;101296.47;5039190;28;20528;-60
2023/01/22 08:52:08;;;;;;;2.73;1.40;;;;;;;17.27;51.85;101295.53;5034437;28;20215;-60
2023/01/22 08:54:33;;;;;;;6.73;1.70;;;;;;;17.27;51.62;101288.97;5040860;28;20180;-60
2023/01/22 08:56:58;;;;;;;2.00;1.47;;;;;;;17.22;51.58;101301.44;5043698;28;20184;-60
2023/01/22 08:59:24;;;;;;;2.57;1.80;;;;;;;17.26;52.07;101299.53;5034131;28;20164;-61
2023/01/22 09:01:49;;;;;;;2.20;1.30;;;;;;;17.22;51.90;101292.88;5036524;28;20247;-60
2023/01/22 09:04:15;;;;;;;2.13;1.23;;;;;;;17.25;52.18;101297.06;5057386;28;20175;-61
2023/01/22 09:06:40;;;;;;;2.87;1.60;;;;;;;17.20;52.12;101298.09;5074160;28;20178;-60
2023/01/22 09:09:06;;;;;;;2.67;1.77;;;;;;;17.21;51.58;101294.03;5074020;28;20529;-60
2023/01/22 09:11:31;;;;;;;2.73;1.67;;;;;;;17.22;51.70;101298.59;5050620;28;20279;-60
2023/01/22 09:13:57;;;;;;;3.50;2.00;;;;;;;17.21;52.06;101301.78;5054206;28;20184;-61
2023/01/22 09:16:23;;;;;;;3.20;2.20;;;;;;;17.22;51.94;101298.59;5045617;28;20192;-60
2023/01/22 09:18:48;;;;;;;2.13;1.33;;;;;;;17.24;51.65;101301.06;5033852;28;20172;-61
2023/01/22 09:21:14;;;;;;;2.17;1.30;;;;;;;17.23;51.58;101305.97;5033957;28;20516;-60
2023/01/22 09:23:39;;;;;;;2.03;1.40;;;;;;;17.21;51.85;101307.50;5034280;28;20259;-61
2023/01/22 09:26:05;;;;;;;2.20;1.50;;;;;;;17.20;51.81;101312.34;5036197;28;20184;-60
2023/01/22 09:28:30;;;;;;;2.20;1.30;;;;;;;17.20;51.49;101320.09;5033767;28;20180;-60
2023/01/22 09:30:56;;;;;;;2.50;1.50;;;;;;;17.26;51.67;101310.97;5042167;28;20183;-60
2023/01/22 09:33:21;;;;;;;2.40;1.30;;;;;;;17.19;51.84;101322.09;5053675;28;20152;-60
2023/01/22 09:35:47;;;;;;;2.30;1.50;;;;;;;17.16;51.88;101322.78;5048867;28;20215;-60
2023/01/22 09:38:12;;;;;;;1.90;1.30;;;;;;;17.17;51.72;101327.34;5033757;28;20563;-60
2023/01/22 09:40:49;;;;;;;2.10;1.40;;;;;;;17.19;51.75;101329.81;5033480;28;20204;-60
2023/01/22 09:43:36;;;;;;;2.50;1.60;;;;;;;17.17;51.68;101330.19;5047304;28;20646;-60
2023/01/22 09:46:05;;;;;;;2.50;1.43;;;;;;;17.19;52.15;101342.09;5050996;28;20552;-60
2023/01/22 09:48:36;;;;;;;2.20;1.40;;;;;;;17.17;51.92;101332.19;5042752;28;20447;-60
2023/01/22 09:51:02;;;;;;;1.73;1.27;;;;;;;17.18;52.15;101333.88;5032273;28;20455;-60
2023/01/22 09:53:27;;;;;;;1.70;1.17;;;;;;;17.17;51.77;101330.19;5032789;28;20528;-60
2023/01/22 09:55:53;;;;;;;2.20;1.47;;;;;;;17.16;51.68;101339.09;5049065;28;20184;-60
2023/01/22 09:58:22;;;;;;;2.97;1.40;;;;;;;17.14;52.11;101335.72;5050916;28;20611;-61
2023/01/22 10:00:59;;;;;;;3.13;1.30;;;;;;;17.12;51.90;101336.09;5048770;28;20223;-60
2023/01/22 10:03:35;;;;;;;2.20;1.40;;;;;;;17.12;51.83;101329.56;5056074;28;20421;-60
2023/01/22 10:06:12;;;;;;;2.03;1.23;;;;;;;17.14;51.81;101327.16;5059888;28;20457;-61
2023/01/22 10:08:48;;;;;;;1.87;1.20;;;;;;;17.11;52.11;101325.84;5031267;28;20418;-60
2023/01/22 10:11:13;;;;;;;3.53;1.50;;;;;;;17.13;51.75;101326.34;5044209;28;20426;-60
2023/01/22 10:13:39;;;;;;;2.63;1.70;;;;;;;17.12;51.82;101335.25;5037322;28;20968;-60
2023/01/22 10:16:05;;;;;;;2.00;1.10;;;;;;;17.12;51.82;101333.25;5033704;28;20188;-60
2023/01/22 10:18:54;;;;;;;2.37;1.77;;;;;;;17.09;51.79;101333.94;5033333;28;20256;-60
2023/01/22 10:21:33;;;;;;;2.00;1.37;;;;;;;17.12;51.63;101333.25;5047398;28;20512;-60
2023/01/22 10:23:58;;;;;;;2.90;1.73;;;;;;;17.08;51.96;101337.97;5052318;28;20472;-60
2023/01/22 10:26:45;;;;;;;2.70;1.70;;;;;;;17.08;51.44;101335.13;5044080;28;20471;-60
2023/01/22 10:29:20;;;;;;;4.40;1.50;;;;;;;17.12;51.93;101338.09;5032701;28;20219;-60
2023/01/22 10:31:47;;;;;;;3.50;1.73;;;;;;;17.08;51.39;101332.25;5035620;28;20440;-60
2023/01/22 10:34:14;;;;;;;4.67;2.17;;;;;;;17.07;51.65;101336.31;5050528;28;20450;-60
2023/01/22 10:36:40;;;;;;;4.07;1.83;;;;;;;17.05;51.84;101338.66;5052322;28;20955;-60
2023/01/22 10:39:13;;;;;;;3.27;1.90;;;;;;;17.08;51.67;101329.41;5039411;28;20443;-61
2023/01/22 10:41:39;;;;;;;5.10;2.10;;;;;;;17.05;51.73;101340.69;5033903;28;20210;-61
2023/01/22 10:44:24;;;;;;;3.27;1.90;;;;;;;17.06;51.86;101330.94;5033180;28;20525;-59
2023/01/22 10:46:50;;;;;;;3.60;2.10;;;;;;;17.05;51.51;101332.94;5032045;28;20427;-60
2023/01/22 10:49:18;;;;;;;3.70;1.97;;;;;;;16.99;51.83;101331.47;5030967;28;20407;-60
2023/01/22 10:51:57;;;;;;;3.70;2.37;;;;;;;17.01;51.83;101328.28;5051098;28;20518;-59
2023/01/22 10:54:29;;;;;;;4.00;2.43;;;;;;;17.04;52.03;101341.84;5047424;28;20413;-59
2023/01/22 10:57:04;;;;;;;3.63;1.90;;;;;;;17.00;51.63;101330.28;5039481;28;20995;-60
2023/01/22 10:59:29;;;;;;;5.13;2.80;;;;;;;17.02;51.82;101333.66;5030691;28;20471;-60
2023/01/22 11:02:00;;;;;;;4.70;2.27;;;;;;;17.01;51.55;101337.66;5032697;28;20478;-60
2023/01/22 11:04:30;;;;;;;4.50;2.50;;;;;;;17.01;51.44;101331.97;5058020;28;20721;-60
2023/01/22 11:07:13;;;;;;;4.30;2.43;;;;;;;16.98;51.96;101338.38;5041334;28;20447;-58
2023/01/22 11:10:17;;;;;;;4.37;2.30;;;;;;;16.98;51.83;101335.53;5031841;28;20415;-60
2023/01/22 11:12:45;;;;;;;4.70;2.60;;;;;;;17.04;51.73;101331.28;5029907;28;20446;-59
2023/01/22 11:15:21;;;;;;;3.50;2.53;;;;;;;17.02;51.75;101332.81;5030481;28;20456;-60
2023/01/22 11:17:51;;;;;;;6.63;3.33;;;;;;;17.02;51.51;101330.81;5030347;28;20461;-60
2023/01/22 11:20:23;;;;;;;5.03;2.63;;;;;;;17.00;51.52;101327.44;5030058;28;20434;-60
2023/01/22 11:23:23;;;;;;;4.47;2.83;;;;;;;16.99;51.74;101327.78;5016022;28;20530;-60
2023/01/22 11:25:56;;;;;;;4.50;2.77;;;;;;;16.91;51.98;101320.94;5030474;28;20842;-60
2023/01/22 11:28:40;;;;;;;5.50;2.57;;;;;;;16.95;51.88;101321.13;5041925;28;20434;-60
2023/01/22 11:31:48;;;;;;;6.73;3.20;;;;;;;16.98;52.01;101332.66;5030938;28;20452;-60
2023/01/22 11:34:30;;;;;;;6.13;2.30;;;;;;;16.98;51.68;101328.97;5029155;28;20411;-60